Webcam

2018/04/20 19:20 EBBR 201920Z 32005KT CAVOK 20/10 Q1022 NOSIG

Webcam

--- Refresh now ---